createdAt,value
2022-10-20T00:00:30.635Z,15.70
2022-10-20T00:01:32.251Z,15.60
2022-10-20T00:02:34.470Z,15.60
2022-10-20T00:03:37.019Z,15.60
2022-10-20T00:04:38.610Z,15.60
2022-10-20T00:05:40.527Z,15.60
2022-10-20T00:06:42.157Z,15.60
2022-10-20T00:07:43.830Z,15.60
2022-10-20T00:08:46.294Z,15.50
2022-10-20T00:09:47.996Z,15.50
2022-10-20T00:10:56.584Z,15.50
2022-10-20T00:11:58.197Z,15.50
2022-10-20T00:12:59.882Z,15.50
2022-10-20T00:14:02.789Z,15.50
2022-10-20T00:15:04.771Z,15.50
2022-10-20T00:16:07.033Z,15.40
2022-10-20T00:17:08.669Z,15.40
2022-10-20T00:18:10.394Z,15.40
2022-10-20T00:19:12.251Z,15.40
2022-10-20T00:21:19.654Z,15.40
2022-10-20T00:22:21.400Z,15.40
2022-10-20T00:23:23.537Z,15.50
2022-10-20T00:24:25.286Z,15.50
2022-10-20T00:25:26.948Z,15.50
2022-10-20T00:26:30.184Z,15.50
2022-10-20T00:27:31.815Z,15.50
2022-10-20T00:28:33.572Z,15.50
2022-10-20T00:29:35.453Z,15.40
2022-10-20T00:30:37.908Z,15.40
2022-10-20T00:31:39.543Z,15.40
2022-10-20T00:32:41.130Z,15.40
2022-10-20T00:33:42.810Z,15.40
2022-10-20T00:34:44.654Z,15.40
2022-10-20T00:35:46.444Z,15.40
2022-10-20T00:36:51.187Z,15.40
2022-10-20T00:37:53.192Z,15.40
2022-10-20T00:39:00.365Z,15.40
2022-10-20T00:40:02.007Z,15.40
2022-10-20T00:41:04.200Z,15.40
2022-10-20T00:42:06.133Z,15.40
2022-10-20T00:43:16.006Z,15.40
2022-10-20T00:44:56.865Z,15.40
2022-10-20T00:45:58.616Z,15.40
2022-10-20T00:47:00.284Z,15.40
2022-10-20T00:48:24.293Z,15.40
2022-10-20T00:49:26.631Z,15.40
2022-10-20T00:50:33.637Z,15.40
2022-10-20T00:51:35.489Z,15.40
2022-10-20T00:52:38.112Z,15.40
2022-10-20T00:53:39.795Z,15.40
2022-10-20T00:54:41.641Z,15.30
2022-10-20T00:55:47.746Z,15.30
2022-10-20T00:56:51.051Z,15.30
2022-10-20T00:57:55.662Z,15.30
2022-10-20T00:58:57.478Z,15.30
2022-10-20T00:59:59.987Z,15.30
2022-10-20T01:01:01.894Z,15.20
2022-10-20T01:02:04.879Z,15.20
2022-10-20T01:03:13.052Z,15.20
2022-10-20T01:04:16.314Z,15.30
2022-10-20T01:05:18.918Z,15.20
2022-10-20T01:06:22.503Z,15.30
2022-10-20T01:07:24.264Z,15.30
2022-10-20T01:08:25.928Z,15.30
2022-10-20T01:09:27.975Z,15.30
2022-10-20T01:10:39.944Z,15.30
2022-10-20T01:12:11.079Z,15.30
2022-10-20T01:13:17.644Z,15.30
2022-10-20T01:14:19.492Z,15.20
2022-10-20T01:15:52.136Z,15.20
2022-10-20T01:17:05.685Z,15.20
2022-10-20T01:18:34.369Z,15.20
2022-10-20T01:20:08.772Z,15.20
2022-10-20T01:21:45.737Z,15.20
2022-10-20T01:23:01.948Z,15.10
2022-10-20T01:24:09.557Z,15.10
2022-10-20T01:25:39.299Z,15.00
2022-10-20T01:27:09.578Z,15.00
2022-10-20T01:28:30.961Z,14.90
2022-10-20T01:30:06.265Z,14.90
2022-10-20T01:31:33.979Z,14.80
2022-10-20T01:32:41.720Z,14.90
2022-10-20T01:33:54.458Z,14.80
2022-10-20T01:35:05.352Z,14.80
2022-10-20T01:36:31.448Z,14.80
2022-10-20T01:37:51.933Z,14.80
2022-10-20T01:39:02.506Z,14.80
2022-10-20T01:40:20.067Z,14.80
2022-10-20T01:41:42.957Z,14.80
2022-10-20T01:42:47.345Z,14.60
2022-10-20T01:43:49.823Z,14.80
2022-10-20T01:44:55.959Z,14.80
2022-10-20T01:45:59.851Z,14.80
2022-10-20T01:47:02.810Z,14.80
2022-10-20T01:48:06.887Z,14.80
2022-10-20T01:49:09.439Z,14.80
2022-10-20T01:50:12.446Z,14.80
2022-10-20T01:51:14.181Z,14.80
2022-10-20T01:52:16.053Z,14.80
2022-10-20T01:53:17.716Z,14.80
2022-10-20T01:54:30.011Z,14.90
2022-10-20T01:55:32.187Z,14.90
2022-10-20T01:56:46.916Z,14.90
2022-10-20T01:58:15.304Z,14.90
2022-10-20T01:59:29.274Z,14.90
2022-10-20T02:00:31.061Z,14.90
2022-10-20T02:01:47.731Z,14.90
2022-10-20T02:03:17.225Z,14.90
2022-10-20T02:04:27.971Z,14.90
2022-10-20T02:05:42.112Z,14.90
2022-10-20T02:07:08.803Z,14.90
2022-10-20T02:08:32.663Z,14.90
2022-10-20T02:09:46.259Z,14.90
2022-10-20T02:10:53.690Z,14.90
2022-10-20T02:12:08.787Z,14.80
2022-10-20T02:13:12.275Z,14.80
2022-10-20T02:14:17.095Z,14.80
2022-10-20T02:15:23.711Z,14.80
2022-10-20T02:16:31.929Z,14.80
2022-10-20T02:17:35.681Z,14.80
2022-10-20T02:18:42.920Z,14.80
2022-10-20T02:19:46.056Z,14.90
2022-10-20T02:20:52.714Z,14.90
2022-10-20T02:21:56.472Z,14.90
2022-10-20T02:23:00.100Z,14.90
2022-10-20T02:24:05.213Z,14.90
2022-10-20T02:25:10.720Z,14.90
2022-10-20T02:26:15.340Z,14.80
2022-10-20T02:27:27.739Z,14.80
2022-10-20T02:28:30.304Z,14.80
2022-10-20T02:29:38.764Z,14.80
2022-10-20T02:30:42.321Z,14.80
2022-10-20T02:31:44.941Z,14.80
2022-10-20T02:32:52.515Z,14.80
2022-10-20T02:33:56.660Z,14.80
2022-10-20T02:35:00.347Z,14.80
2022-10-20T02:36:06.558Z,14.80
2022-10-20T02:37:08.298Z,14.80
2022-10-20T02:38:09.929Z,14.80
2022-10-20T02:39:12.166Z,14.80
2022-10-20T02:40:15.354Z,14.90
2022-10-20T02:41:16.940Z,14.80
2022-10-20T02:42:18.541Z,14.80
2022-10-20T02:43:20.147Z,14.80
2022-10-20T02:44:22.770Z,14.80
2022-10-20T02:45:24.387Z,14.70
2022-10-20T02:46:27.237Z,14.70
2022-10-20T02:47:28.823Z,14.70
2022-10-20T02:48:30.523Z,14.80
2022-10-20T02:49:32.134Z,14.80
2022-10-20T02:50:33.866Z,14.80
2022-10-20T02:51:35.690Z,14.80
2022-10-20T02:52:37.977Z,14.80
2022-10-20T02:53:39.618Z,14.80
2022-10-20T02:54:41.295Z,14.80
2022-10-20T02:55:43.927Z,14.80
2022-10-20T02:56:45.512Z,14.80
2022-10-20T02:57:47.132Z,14.90
2022-10-20T02:58:49.533Z,14.90
2022-10-20T02:59:51.147Z,14.80
2022-10-20T03:00:52.781Z,14.80
2022-10-20T03:01:54.483Z,14.80
2022-10-20T03:02:56.231Z,14.70
2022-10-20T03:03:59.768Z,14.70
2022-10-20T03:05:01.875Z,14.70
2022-10-20T03:06:11.884Z,14.60
2022-10-20T03:07:14.206Z,14.60
2022-10-20T03:08:16.001Z,14.60
2022-10-20T03:09:17.628Z,14.60
2022-10-20T03:10:19.711Z,14.70
2022-10-20T03:11:21.470Z,14.60
2022-10-20T03:12:23.116Z,14.70
2022-10-20T03:13:24.835Z,14.70
2022-10-20T03:14:26.475Z,14.70
2022-10-20T03:15:28.054Z,14.70
2022-10-20T03:16:29.764Z,14.70
2022-10-20T03:17:31.625Z,14.70
2022-10-20T03:18:33.227Z,14.70
2022-10-20T03:19:34.832Z,14.70
2022-10-20T03:20:36.799Z,14.80
2022-10-20T03:21:38.755Z,14.80
2022-10-20T03:22:40.352Z,14.80
2022-10-20T03:23:41.946Z,14.80
2022-10-20T03:24:43.800Z,14.80
2022-10-20T03:25:45.462Z,14.80
2022-10-20T03:26:47.055Z,14.80
2022-10-20T03:27:48.720Z,14.80
2022-10-20T03:28:50.341Z,14.80
2022-10-20T03:29:52.400Z,14.80
2022-10-20T03:30:54.004Z,14.80
2022-10-20T03:31:55.600Z,14.80
2022-10-20T03:32:57.282Z,14.80
2022-10-20T03:33:58.899Z,14.80
2022-10-20T03:35:00.509Z,14.80
2022-10-20T03:36:02.361Z,14.80
2022-10-20T03:37:03.985Z,14.80
2022-10-20T03:38:05.601Z,14.80
2022-10-20T03:39:07.227Z,14.80
2022-10-20T03:40:09.331Z,14.80
2022-10-20T03:41:11.604Z,14.90
2022-10-20T03:42:14.028Z,14.80
2022-10-20T03:43:15.660Z,14.90
2022-10-20T03:44:17.640Z,14.90
2022-10-20T03:45:19.243Z,14.80
2022-10-20T03:46:20.873Z,14.80
2022-10-20T03:47:22.462Z,14.80
2022-10-20T03:48:24.071Z,14.80
2022-10-20T03:49:26.008Z,14.80
2022-10-20T03:50:27.874Z,14.80
2022-10-20T03:51:29.697Z,14.70
2022-10-20T03:52:31.287Z,14.80
2022-10-20T03:53:33.325Z,14.80
2022-10-20T03:54:35.961Z,14.80
2022-10-20T03:55:37.704Z,14.80
2022-10-20T03:56:39.482Z,14.80
2022-10-20T03:57:41.064Z,14.80
2022-10-20T03:58:42.682Z,14.80
2022-10-20T03:59:44.835Z,14.80
2022-10-20T04:00:46.958Z,14.80
2022-10-20T04:01:49.003Z,14.80
2022-10-20T04:02:50.804Z,14.80
2022-10-20T04:03:52.410Z,14.80
2022-10-20T04:04:54.084Z,14.80
2022-10-20T04:05:55.824Z,14.80
2022-10-20T04:06:57.451Z,14.80
2022-10-20T04:07:59.063Z,14.80
2022-10-20T04:09:00.784Z,14.80
2022-10-20T04:10:02.514Z,14.80
2022-10-20T04:11:04.331Z,14.60
2022-10-20T04:12:06.066Z,14.80
2022-10-20T04:13:09.248Z,14.80
2022-10-20T04:14:11.059Z,14.80
2022-10-20T04:15:12.861Z,14.80
2022-10-20T04:16:14.498Z,14.80
2022-10-20T04:17:16.115Z,14.80
2022-10-20T04:18:17.784Z,14.80
2022-10-20T04:19:19.394Z,14.80
2022-10-20T04:20:21.140Z,14.80
2022-10-20T04:21:23.223Z,14.80
2022-10-20T04:22:24.889Z,14.80
2022-10-20T04:23:26.564Z,14.80
2022-10-20T04:24:28.207Z,14.70
2022-10-20T04:25:29.802Z,14.70
2022-10-20T04:26:31.403Z,14.70
2022-10-20T04:27:33.315Z,14.70
2022-10-20T04:28:35.051Z,14.80
2022-10-20T04:29:36.724Z,14.70
2022-10-20T04:30:41.974Z,14.70
2022-10-20T04:31:46.749Z,14.80
2022-10-20T04:32:50.750Z,14.80
2022-10-20T04:33:52.348Z,14.80
2022-10-20T04:34:53.954Z,14.80
2022-10-20T04:36:00.426Z,14.80
2022-10-20T04:37:02.638Z,14.80
2022-10-20T04:38:04.677Z,14.80
2022-10-20T04:39:06.948Z,14.80
2022-10-20T04:40:10.380Z,14.80
2022-10-20T04:41:13.019Z,14.80
2022-10-20T04:42:14.622Z,14.80
2022-10-20T04:43:16.336Z,14.80
2022-10-20T04:44:18.102Z,14.90
2022-10-20T04:45:19.716Z,14.90
2022-10-20T04:46:21.331Z,14.90
2022-10-20T04:47:22.962Z,14.90
2022-10-20T04:48:24.818Z,14.90
2022-10-20T04:49:26.585Z,14.90
2022-10-20T04:50:28.170Z,14.90
2022-10-20T04:51:29.758Z,14.90
2022-10-20T04:52:31.793Z,14.90
2022-10-20T04:53:33.875Z,14.90
2022-10-20T04:54:35.568Z,14.90
2022-10-20T04:55:41.315Z,15.00
2022-10-20T04:56:43.009Z,15.00
2022-10-20T04:57:44.743Z,15.00
2022-10-20T04:58:56.899Z,15.00
2022-10-20T04:59:58.483Z,15.00
2022-10-20T05:01:09.133Z,14.90
2022-10-20T05:02:11.377Z,14.90
2022-10-20T05:03:13.049Z,14.90
2022-10-20T05:04:20.969Z,14.80
2022-10-20T05:05:22.592Z,14.80
2022-10-20T05:06:30.235Z,14.80
2022-10-20T05:07:32.125Z,14.80
2022-10-20T05:08:34.095Z,14.80
2022-10-20T05:09:35.859Z,14.80
2022-10-20T05:10:37.523Z,14.90
2022-10-20T05:11:41.861Z,14.80
2022-10-20T05:12:43.442Z,14.90
2022-10-20T05:13:45.102Z,14.90
2022-10-20T05:14:46.765Z,14.90
2022-10-20T05:15:52.864Z,14.90
2022-10-20T05:16:55.649Z,14.90
2022-10-20T05:17:58.286Z,14.90
2022-10-20T05:18:59.953Z,14.90
2022-10-20T05:20:01.574Z,14.90
2022-10-20T05:21:18.019Z,14.90
2022-10-20T05:22:19.629Z,14.90
2022-10-20T05:23:21.754Z,15.00
2022-10-20T05:24:26.528Z,15.00
2022-10-20T05:25:36.515Z,15.00
2022-10-20T05:26:38.644Z,14.90
2022-10-20T05:27:40.261Z,14.90
2022-10-20T05:28:47.856Z,14.90
2022-10-20T05:29:49.459Z,14.90
2022-10-20T05:30:51.074Z,14.90
2022-10-20T05:31:52.795Z,14.90
2022-10-20T05:32:54.404Z,14.90
2022-10-20T05:33:57.673Z,14.90
2022-10-20T05:34:59.286Z,14.90
2022-10-20T05:36:06.038Z,14.90
2022-10-20T05:37:07.661Z,14.90
2022-10-20T05:38:09.265Z,14.90
2022-10-20T05:39:11.501Z,14.90
2022-10-20T05:40:13.287Z,15.00
2022-10-20T05:41:17.421Z,14.90
2022-10-20T05:42:19.033Z,14.90
2022-10-20T05:43:20.683Z,14.90
2022-10-20T05:44:22.416Z,14.90
2022-10-20T05:45:24.235Z,14.90
2022-10-20T05:46:31.865Z,14.90
2022-10-20T05:47:34.284Z,15.00
2022-10-20T05:48:40.668Z,14.90
2022-10-20T05:49:44.509Z,15.00
2022-10-20T05:51:52.674Z,14.90
2022-10-20T05:52:54.371Z,14.90
2022-10-20T05:53:56.985Z,14.90
2022-10-20T05:54:59.484Z,14.90
2022-10-20T05:56:09.075Z,14.90
2022-10-20T05:57:11.131Z,14.90
2022-10-20T05:58:12.723Z,15.00
2022-10-20T05:59:14.545Z,14.90
2022-10-20T06:00:19.330Z,15.00
2022-10-20T06:01:24.414Z,15.00
2022-10-20T06:02:26.239Z,15.00
2022-10-20T06:03:28.369Z,15.00
2022-10-20T06:04:31.352Z,15.00
2022-10-20T06:05:32.997Z,15.00
2022-10-20T06:06:35.024Z,15.00
2022-10-20T06:07:36.807Z,15.00
2022-10-20T06:08:38.455Z,15.00
2022-10-20T06:09:40.764Z,15.00
2022-10-20T06:10:42.381Z,15.10
2022-10-20T06:11:44.072Z,15.00
2022-10-20T06:12:46.055Z,15.00
2022-10-20T06:13:51.692Z,15.00
2022-10-20T06:14:54.639Z,15.00
2022-10-20T06:16:03.856Z,15.00
2022-10-20T06:17:05.440Z,15.10
2022-10-20T06:18:07.449Z,15.10
2022-10-20T06:19:09.645Z,15.10
2022-10-20T06:20:11.383Z,15.10
2022-10-20T06:21:16.860Z,15.10
2022-10-20T06:22:18.617Z,15.10
2022-10-20T06:23:20.222Z,15.10
2022-10-20T06:24:22.105Z,15.10
2022-10-20T06:25:23.741Z,15.10
2022-10-20T06:26:29.877Z,15.10
2022-10-20T06:27:31.479Z,15.10
2022-10-20T06:28:34.853Z,15.10
2022-10-20T06:29:36.462Z,15.20
2022-10-20T06:30:38.068Z,15.20
2022-10-20T06:31:42.433Z,15.10
2022-10-20T06:32:44.037Z,15.10
2022-10-20T06:33:46.989Z,15.10
2022-10-20T06:34:48.606Z,15.20
2022-10-20T06:35:50.192Z,15.20
2022-10-20T06:36:52.500Z,15.20
2022-10-20T06:37:54.141Z,15.20
2022-10-20T06:38:58.359Z,15.20
2022-10-20T06:39:59.968Z,15.20
2022-10-20T06:41:03.173Z,15.20
2022-10-20T06:42:09.534Z,15.20
2022-10-20T06:43:13.587Z,15.20
2022-10-20T06:44:15.200Z,15.20
2022-10-20T06:45:17.813Z,15.30
2022-10-20T06:46:19.611Z,15.30
2022-10-20T06:47:21.560Z,15.30
2022-10-20T06:48:23.733Z,15.20
2022-10-20T06:49:26.716Z,15.30
2022-10-20T06:50:28.443Z,15.20
2022-10-20T06:51:30.739Z,15.20
2022-10-20T06:52:32.411Z,15.20
2022-10-20T06:53:35.595Z,15.20
2022-10-20T06:54:37.250Z,15.20
2022-10-20T06:55:40.288Z,15.20
2022-10-20T06:56:41.940Z,15.20
2022-10-20T06:57:43.631Z,15.20
2022-10-20T06:58:48.034Z,15.30
2022-10-20T06:59:49.735Z,15.20
2022-10-20T07:01:15.504Z,15.30
2022-10-20T07:02:17.852Z,15.30
2022-10-20T07:03:19.449Z,15.30
2022-10-20T07:04:21.142Z,15.50
2022-10-20T07:05:23.170Z,15.30
2022-10-20T07:06:28.526Z,15.30
2022-10-20T07:07:30.184Z,15.30
2022-10-20T07:08:34.258Z,15.30
2022-10-20T07:09:36.275Z,15.30
2022-10-20T07:10:37.899Z,15.40
2022-10-20T07:11:39.848Z,15.40
2022-10-20T07:12:41.456Z,15.40
2022-10-20T07:13:43.681Z,15.50
2022-10-20T07:14:45.552Z,15.50
2022-10-20T07:15:47.844Z,15.50
2022-10-20T07:16:49.471Z,15.50
2022-10-20T07:17:51.095Z,15.50
2022-10-20T07:18:53.347Z,15.50
2022-10-20T07:19:54.958Z,15.50
2022-10-20T07:21:01.615Z,15.50
2022-10-20T07:22:04.354Z,15.60
2022-10-20T07:23:05.988Z,15.60
2022-10-20T07:24:07.961Z,15.60
2022-10-20T07:25:09.748Z,15.70
2022-10-20T07:26:15.253Z,15.60
2022-10-20T07:27:16.857Z,15.70
2022-10-20T07:28:21.113Z,15.70
2022-10-20T07:29:23.005Z,15.70
2022-10-20T07:30:24.681Z,15.70
2022-10-20T07:31:29.079Z,15.70
2022-10-20T07:32:31.686Z,15.70
2022-10-20T07:33:33.754Z,15.80
2022-10-20T07:34:35.386Z,15.80
2022-10-20T07:35:37.554Z,15.80
2022-10-20T07:36:42.231Z,15.80
2022-10-20T07:37:43.933Z,15.80
2022-10-20T07:38:47.379Z,15.80
2022-10-20T07:39:48.981Z,15.90
2022-10-20T07:40:50.703Z,15.90
2022-10-20T07:41:52.600Z,15.90
2022-10-20T07:42:54.577Z,15.90
2022-10-20T07:43:57.126Z,15.90
2022-10-20T07:44:58.790Z,15.90
2022-10-20T07:46:00.415Z,15.90
2022-10-20T07:47:02.069Z,16.00
2022-10-20T07:48:04.277Z,16.00
2022-10-20T07:49:38.308Z,16.00
2022-10-20T07:50:27.646Z,16.00
2022-10-20T07:51:30.940Z,16.00
2022-10-20T07:52:32.559Z,16.00
2022-10-20T07:53:34.347Z,16.00
2022-10-20T07:54:36.279Z,16.10
2022-10-20T07:55:39.199Z,16.10
2022-10-20T07:56:43.321Z,16.20
2022-10-20T07:57:45.252Z,16.10
2022-10-20T07:58:47.891Z,16.10
2022-10-20T07:59:49.567Z,16.10
2022-10-20T08:00:51.424Z,16.20
2022-10-20T08:01:57.433Z,16.20
2022-10-20T08:03:00.518Z,16.20
2022-10-20T08:04:02.327Z,16.20
2022-10-20T08:05:04.505Z,16.30
2022-10-20T08:06:07.281Z,16.30
2022-10-20T08:07:08.883Z,16.40
2022-10-20T08:08:10.505Z,16.40
2022-10-20T08:09:13.213Z,16.40
2022-10-20T08:10:14.884Z,16.40
2022-10-20T08:11:17.214Z,16.50
2022-10-20T08:12:20.393Z,16.50
2022-10-20T08:13:23.340Z,16.50
2022-10-20T08:14:27.190Z,16.50
2022-10-20T08:15:29.033Z,16.50
2022-10-20T08:17:46.289Z,16.50
2022-10-20T08:21:22.661Z,16.50
2022-10-20T08:22:24.315Z,16.50
2022-10-20T08:23:25.957Z,16.50
2022-10-20T08:24:27.619Z,16.50
2022-10-20T08:25:29.493Z,16.50
2022-10-20T08:26:32.772Z,16.50
2022-10-20T08:27:34.420Z,16.60
2022-10-20T08:28:39.306Z,16.60
2022-10-20T08:29:41.966Z,16.60
2022-10-20T08:30:47.974Z,16.60
2022-10-20T08:31:49.569Z,16.70
2022-10-20T08:32:56.089Z,16.70
2022-10-20T08:33:58.071Z,16.80
2022-10-20T08:35:01.021Z,16.80
2022-10-20T08:36:08.379Z,16.80
2022-10-20T08:37:10.030Z,16.90
2022-10-20T08:38:11.651Z,16.90
2022-10-20T08:39:13.443Z,16.90
2022-10-20T08:40:31.096Z,16.90
2022-10-20T08:42:02.825Z,17.00
2022-10-20T08:43:01.363Z,17.00
2022-10-20T08:44:05.765Z,17.00
2022-10-20T08:45:07.940Z,17.00
2022-10-20T08:46:22.894Z,17.00
2022-10-20T08:47:33.544Z,17.00
2022-10-20T08:48:35.479Z,17.00
2022-10-20T08:49:40.454Z,17.00
2022-10-20T08:50:45.890Z,17.00
2022-10-20T08:51:47.617Z,17.00
2022-10-20T08:52:56.104Z,17.00
2022-10-20T08:53:59.919Z,17.10
2022-10-20T08:55:04.732Z,17.10
2022-10-20T08:56:06.955Z,17.10
2022-10-20T08:57:33.429Z,17.10
2022-10-20T08:58:42.895Z,17.20
2022-10-20T08:59:44.522Z,17.20
2022-10-20T09:00:46.987Z,17.30
2022-10-20T09:01:50.106Z,17.30
2022-10-20T09:02:51.919Z,17.30
2022-10-20T09:04:00.358Z,17.30
2022-10-20T09:05:03.926Z,17.30
2022-10-20T09:06:16.336Z,17.30
2022-10-20T09:07:30.662Z,17.30
2022-10-20T09:08:36.511Z,17.30
2022-10-20T09:09:38.934Z,17.30
2022-10-20T09:10:51.306Z,17.30
2022-10-20T09:12:02.581Z,17.30
2022-10-20T09:13:18.550Z,17.40
2022-10-20T09:14:21.016Z,17.40
2022-10-20T09:15:23.739Z,17.40
2022-10-20T09:16:40.954Z,17.40
2022-10-20T09:18:10.862Z,17.40
2022-10-20T09:19:22.673Z,17.50
2022-10-20T09:20:35.146Z,17.50
2022-10-20T09:21:39.610Z,17.60
2022-10-20T09:22:42.447Z,17.60
2022-10-20T09:23:47.528Z,17.60
2022-10-20T09:24:52.106Z,17.60
2022-10-20T09:25:55.101Z,17.60
2022-10-20T09:26:59.531Z,17.70
2022-10-20T09:28:01.685Z,17.70
2022-10-20T09:29:12.961Z,17.70
2022-10-20T09:30:23.913Z,17.80
2022-10-20T09:31:45.544Z,17.80
2022-10-20T09:32:48.276Z,17.90
2022-10-20T09:33:51.486Z,17.80
2022-10-20T09:35:17.764Z,17.80
2022-10-20T09:36:21.013Z,17.90
2022-10-20T09:37:24.983Z,17.90
2022-10-20T09:38:29.556Z,17.90
2022-10-20T09:39:39.603Z,17.90
2022-10-20T09:41:10.337Z,18.00
2022-10-20T09:42:20.792Z,18.00
2022-10-20T09:43:25.974Z,18.00
2022-10-20T09:44:27.957Z,17.90
2022-10-20T09:45:32.649Z,18.00
2022-10-20T09:46:42.093Z,18.00
2022-10-20T09:47:48.120Z,18.00
2022-10-20T09:48:51.075Z,18.00
2022-10-20T09:50:00.948Z,18.00
2022-10-20T09:51:06.016Z,18.10
2022-10-20T09:52:25.405Z,18.10
2022-10-20T09:53:34.968Z,18.10
2022-10-20T09:54:37.045Z,18.00
2022-10-20T09:55:46.837Z,18.10
2022-10-20T09:56:49.580Z,18.00
2022-10-20T09:57:53.145Z,18.10
2022-10-20T09:58:57.203Z,18.10
2022-10-20T10:00:01.384Z,18.20
2022-10-20T10:01:17.475Z,18.10
2022-10-20T10:02:19.146Z,18.20
2022-10-20T10:03:23.259Z,18.20
2022-10-20T10:04:39.402Z,18.20
2022-10-20T10:05:41.023Z,18.30
2022-10-20T10:06:44.068Z,18.30
2022-10-20T10:07:56.461Z,18.30
2022-10-20T10:09:00.248Z,18.30
2022-10-20T10:10:05.687Z,18.30
2022-10-20T10:11:21.349Z,18.30
2022-10-20T10:12:24.826Z,18.30
2022-10-20T10:13:30.432Z,18.30
2022-10-20T10:14:35.085Z,18.30
2022-10-20T10:15:37.897Z,18.30
2022-10-20T10:16:42.486Z,18.30
2022-10-20T10:17:44.485Z,18.40
2022-10-20T10:19:02.850Z,18.40
2022-10-20T10:20:24.823Z,18.40
2022-10-20T10:21:26.702Z,18.50
2022-10-20T10:22:28.552Z,18.50
2022-10-20T10:23:34.092Z,18.50
2022-10-20T10:24:43.983Z,18.60
2022-10-20T10:25:45.796Z,18.60
2022-10-20T10:26:53.552Z,18.70
2022-10-20T10:28:19.850Z,18.70
2022-10-20T10:29:26.631Z,18.70
2022-10-20T10:30:32.892Z,18.70
2022-10-20T10:31:34.847Z,18.80
2022-10-20T10:32:44.031Z,18.80
2022-10-20T10:33:47.665Z,18.80
2022-10-20T10:35:08.124Z,18.80
2022-10-20T10:36:36.427Z,18.80
2022-10-20T10:37:42.334Z,18.80
2022-10-20T10:38:44.309Z,18.80
2022-10-20T10:39:46.176Z,18.80
2022-10-20T10:41:05.206Z,18.80
2022-10-20T10:42:35.266Z,18.80
2022-10-20T10:43:46.263Z,18.80
2022-10-20T10:45:08.858Z,18.80
2022-10-20T10:46:13.274Z,18.80
2022-10-20T10:47:45.578Z,18.80
2022-10-20T10:49:21.257Z,18.80
2022-10-20T10:50:53.742Z,18.80
2022-10-20T10:52:38.263Z,18.70
2022-10-20T10:53:55.265Z,18.70
2022-10-20T10:55:03.103Z,18.70
2022-10-20T10:58:02.659Z,18.70
2022-10-20T10:59:29.387Z,18.80
2022-10-20T11:01:17.888Z,18.80
2022-10-20T11:02:57.188Z,18.80
2022-10-20T11:04:27.372Z,18.80
2022-10-20T11:05:51.850Z,18.80
2022-10-20T11:07:09.583Z,18.80
2022-10-20T11:08:35.923Z,18.80
2022-10-20T11:10:00.967Z,18.80
2022-10-20T11:11:41.760Z,18.80
2022-10-20T11:13:03.759Z,18.80
2022-10-20T11:14:25.077Z,18.80
2022-10-20T11:15:36.023Z,18.80
2022-10-20T11:17:10.687Z,18.80
2022-10-20T11:18:46.576Z,18.80
2022-10-20T11:20:01.452Z,18.90
2022-10-20T11:21:28.728Z,18.90
2022-10-20T11:22:51.707Z,18.90
2022-10-20T11:24:06.681Z,18.90
2022-10-20T11:25:16.595Z,18.90
2022-10-20T11:26:29.014Z,19.00
2022-10-20T11:27:35.498Z,19.10
2022-10-20T11:28:49.833Z,18.90
2022-10-20T11:30:08.066Z,18.90
2022-10-20T11:31:28.108Z,19.00
2022-10-20T11:32:37.975Z,19.00
2022-10-20T11:33:47.892Z,19.00
2022-10-20T11:35:04.120Z,19.00
2022-10-20T11:36:31.932Z,19.10
2022-10-20T11:37:55.625Z,19.10
2022-10-20T11:39:00.386Z,19.10
2022-10-20T11:40:11.200Z,19.10
2022-10-20T11:41:19.047Z,19.10
2022-10-20T11:43:10.168Z,19.10
2022-10-20T11:44:14.736Z,19.20
2022-10-20T11:45:25.492Z,19.20
2022-10-20T11:46:50.176Z,19.20
2022-10-20T11:48:11.882Z,19.20
2022-10-20T11:49:13.730Z,19.10
2022-10-20T11:50:18.432Z,19.10
2022-10-20T11:52:01.440Z,19.10
2022-10-20T11:53:24.233Z,19.10
2022-10-20T11:54:31.249Z,19.20
2022-10-20T11:55:43.751Z,19.10
2022-10-20T11:57:05.655Z,19.10
2022-10-20T11:58:19.409Z,19.10
2022-10-20T11:59:21.000Z,19.10
2022-10-20T12:00:33.676Z,19.10
2022-10-20T12:02:06.417Z,19.10
2022-10-20T12:03:41.599Z,19.20
2022-10-20T12:05:09.725Z,19.20
2022-10-20T12:06:35.597Z,19.30
2022-10-20T12:08:17.561Z,19.30
2022-10-20T12:09:45.823Z,19.30
2022-10-20T12:11:12.455Z,19.20
2022-10-20T12:12:41.342Z,19.20
2022-10-20T12:13:45.982Z,19.20
2022-10-20T12:14:59.943Z,19.20
2022-10-20T12:16:02.216Z,19.30
2022-10-20T12:17:24.509Z,19.30
2022-10-20T12:18:28.163Z,19.30
2022-10-20T12:19:35.640Z,19.30
2022-10-20T12:20:37.341Z,19.30
2022-10-20T12:22:06.038Z,19.30
2022-10-20T12:23:42.724Z,19.30
2022-10-20T12:25:07.203Z,19.30
2022-10-20T12:26:30.369Z,19.40
2022-10-20T12:27:34.027Z,19.40
2022-10-20T12:28:41.607Z,19.40
2022-10-20T12:29:44.203Z,19.40
2022-10-20T12:30:54.838Z,19.30
2022-10-20T12:32:33.883Z,19.30
2022-10-20T12:33:57.978Z,19.30
2022-10-20T12:35:16.017Z,19.30
2022-10-20T12:36:17.723Z,19.30
2022-10-20T12:37:26.933Z,19.30
2022-10-20T12:38:37.871Z,19.30
2022-10-20T12:39:40.080Z,19.30
2022-10-20T12:40:57.867Z,19.30
2022-10-20T12:42:02.436Z,19.30
2022-10-20T12:43:05.196Z,19.40
2022-10-20T12:44:16.240Z,19.40
2022-10-20T12:45:37.677Z,19.40
2022-10-20T12:46:46.062Z,19.40
2022-10-20T12:48:00.802Z,19.40
2022-10-20T12:49:11.048Z,19.40
2022-10-20T12:50:34.095Z,19.40
2022-10-20T12:51:50.081Z,19.40
2022-10-20T12:52:56.246Z,19.40
2022-10-20T12:54:02.552Z,19.40
2022-10-20T12:55:21.282Z,19.40
2022-10-20T12:56:24.686Z,19.40
2022-10-20T12:57:38.361Z,19.40
2022-10-20T12:59:09.020Z,19.40
2022-10-20T13:00:19.561Z,19.40
2022-10-20T13:01:21.294Z,19.40
2022-10-20T13:02:25.866Z,19.40
2022-10-20T13:03:49.359Z,19.40
2022-10-20T13:05:05.977Z,19.40
2022-10-20T13:06:27.880Z,19.40
2022-10-20T13:07:52.578Z,19.40
2022-10-20T13:09:09.798Z,19.40
2022-10-20T13:10:26.950Z,19.30
2022-10-20T13:11:37.762Z,19.40
2022-10-20T13:12:40.099Z,19.40
2022-10-20T13:13:56.672Z,19.40
2022-10-20T13:15:10.094Z,19.30
2022-10-20T13:16:19.859Z,19.30
2022-10-20T13:17:54.892Z,19.30
2022-10-20T13:18:57.178Z,19.30
2022-10-20T13:20:07.527Z,19.30
2022-10-20T13:21:31.551Z,19.30
2022-10-20T13:22:46.664Z,19.30
2022-10-20T13:24:13.536Z,19.30
2022-10-20T13:25:30.402Z,19.30
2022-10-20T13:26:50.160Z,19.30
2022-10-20T13:28:01.796Z,19.30
2022-10-20T13:29:12.507Z,19.20
2022-10-20T13:30:21.891Z,19.20
2022-10-20T13:31:40.426Z,19.20
2022-10-20T13:33:32.730Z,19.20
2022-10-20T13:34:26.870Z,19.20
2022-10-20T13:35:47.468Z,19.20
2022-10-20T13:37:01.389Z,19.20
2022-10-20T13:38:36.951Z,19.20
2022-10-20T13:40:06.766Z,19.20
2022-10-20T13:41:28.871Z,19.20
2022-10-20T13:43:05.187Z,19.20
2022-10-20T13:44:32.183Z,19.20
2022-10-20T13:45:48.948Z,19.20
2022-10-20T13:46:50.523Z,19.20
2022-10-20T13:48:18.805Z,19.20
2022-10-20T13:49:40.716Z,19.20
2022-10-20T13:50:46.148Z,19.20
2022-10-20T13:51:54.368Z,19.20
2022-10-20T13:53:04.466Z,19.20
2022-10-20T13:54:07.202Z,19.20
2022-10-20T13:55:20.522Z,19.20
2022-10-20T13:56:35.232Z,19.20
2022-10-20T13:57:46.861Z,19.20
2022-10-20T13:59:09.285Z,19.20
2022-10-20T14:00:39.757Z,19.20
2022-10-20T14:01:48.715Z,19.30
2022-10-20T14:03:16.556Z,19.30
2022-10-20T14:04:28.934Z,19.30
2022-10-20T14:05:37.883Z,19.30
2022-10-20T14:06:39.564Z,19.30
2022-10-20T14:07:43.964Z,19.30
2022-10-20T14:08:45.705Z,19.30
2022-10-20T14:09:58.184Z,19.30
2022-10-20T14:11:04.466Z,19.40
2022-10-20T14:12:24.502Z,19.40
2022-10-20T14:13:31.089Z,19.40
2022-10-20T14:14:36.175Z,19.40
2022-10-20T14:15:39.969Z,19.40
2022-10-20T14:16:55.980Z,19.40
2022-10-20T14:18:20.613Z,19.40
2022-10-20T14:19:27.600Z,19.40
2022-10-20T14:20:31.033Z,19.40
2022-10-20T14:21:44.268Z,19.40
2022-10-20T14:22:47.145Z,19.50
2022-10-20T14:23:50.730Z,19.40
2022-10-20T14:24:57.594Z,19.40
2022-10-20T14:26:00.320Z,19.40
2022-10-20T14:27:05.098Z,19.40
2022-10-20T14:28:07.659Z,19.40
2022-10-20T14:29:17.196Z,19.40
2022-10-20T14:30:19.112Z,19.40
2022-10-20T14:31:23.196Z,19.40
2022-10-20T14:32:27.810Z,19.40
2022-10-20T14:33:30.672Z,19.40
2022-10-20T14:34:35.674Z,19.40
2022-10-20T14:35:50.476Z,19.40
2022-10-20T14:36:57.247Z,19.40
2022-10-20T14:38:05.812Z,19.40
2022-10-20T14:39:19.397Z,19.40